sensor_id;sensor_type;location;lat;lon;timestamp;pressure;altitude;pressure_sealevel;temperature;humidity
83559;BME280;73527;47.882;7.718;2024-02-15T00:01:20;98962.22;;;14.72;61.16
83559;BME280;73527;47.882;7.718;2024-02-15T00:03:46;98971.19;;;13.76;64.91
83559;BME280;73527;47.882;7.718;2024-02-15T00:06:11;98963.38;;;13.60;65.65
83559;BME280;73527;47.882;7.718;2024-02-15T00:08:37;98970.03;;;13.92;64.81
83559;BME280;73527;47.882;7.718;2024-02-15T00:11:02;98967.31;;;14.20;63.56
83559;BME280;73527;47.882;7.718;2024-02-15T00:13:28;98962.50;;;14.43;62.76
83559;BME280;73527;47.882;7.718;2024-02-15T00:15:53;98964.78;;;14.46;62.69
83559;BME280;73527;47.882;7.718;2024-02-15T00:18:18;98953.00;;;14.19;63.30
83559;BME280;73527;47.882;7.718;2024-02-15T00:20:43;98949.19;;;14.35;62.64
83559;BME280;73527;47.882;7.718;2024-02-15T00:23:09;98957.38;;;14.27;63.51
83559;BME280;73527;47.882;7.718;2024-02-15T00:25:34;98952.94;;;14.40;62.50
83559;BME280;73527;47.882;7.718;2024-02-15T00:28:01;98954.75;;;14.33;62.84
83559;BME280;73527;47.882;7.718;2024-02-15T00:30:27;98952.31;;;14.38;62.57
83559;BME280;73527;47.882;7.718;2024-02-15T00:32:53;98950.50;;;14.18;63.44
83559;BME280;73527;47.882;7.718;2024-02-15T00:35:18;98951.75;;;14.49;62.25
83559;BME280;73527;47.882;7.718;2024-02-15T00:37:44;98951.63;;;14.30;63.03
83559;BME280;73527;47.882;7.718;2024-02-15T00:40:10;98956.59;;;13.98;63.59
83559;BME280;73527;47.882;7.718;2024-02-15T00:42:36;98956.81;;;13.97;64.08
83559;BME280;73527;47.882;7.718;2024-02-15T00:45:02;98951.78;;;14.22;63.76
83559;BME280;73527;47.882;7.718;2024-02-15T00:47:27;98950.34;;;14.26;62.83
83559;BME280;73527;47.882;7.718;2024-02-15T00:49:53;98946.59;;;14.27;63.44
83559;BME280;73527;47.882;7.718;2024-02-15T00:52:19;98948.38;;;14.06;63.67
83559;BME280;73527;47.882;7.718;2024-02-15T00:54:45;98950.03;;;14.07;63.60
83559;BME280;73527;47.882;7.718;2024-02-15T00:57:10;98956.19;;;14.29;63.23
83559;BME280;73527;47.882;7.718;2024-02-15T00:59:36;98952.88;;;14.34;63.20
83559;BME280;73527;47.882;7.718;2024-02-15T01:02:02;98940.56;;;14.18;63.42
83559;BME280;73527;47.882;7.718;2024-02-15T01:04:27;98953.31;;;14.37;62.71
83559;BME280;73527;47.882;7.718;2024-02-15T01:06:53;98937.38;;;14.36;62.69
83559;BME280;73527;47.882;7.718;2024-02-15T01:09:18;98949.28;;;14.27;63.08
83559;BME280;73527;47.882;7.718;2024-02-15T01:11:43;98936.19;;;13.83;64.97
83559;BME280;73527;47.882;7.718;2024-02-15T01:14:09;98941.91;;;14.01;64.01
83559;BME280;73527;47.882;7.718;2024-02-15T01:16:35;98930.28;;;14.00;64.05
83559;BME280;73527;47.882;7.718;2024-02-15T01:19:01;98938.94;;;14.30;63.59
83559;BME280;73527;47.882;7.718;2024-02-15T01:21:27;98944.00;;;14.05;63.82
83559;BME280;73527;47.882;7.718;2024-02-15T01:23:52;98929.25;;;14.01;63.92
83559;BME280;73527;47.882;7.718;2024-02-15T01:26:19;98924.06;;;14.34;63.18
83559;BME280;73527;47.882;7.718;2024-02-15T01:28:45;98926.19;;;14.45;62.99
83559;BME280;73527;47.882;7.718;2024-02-15T01:31:10;98925.16;;;14.53;62.51
83559;BME280;73527;47.882;7.718;2024-02-15T01:33:37;98915.16;;;14.40;62.45
83559;BME280;73527;47.882;7.718;2024-02-15T01:36:03;98927.78;;;14.33;62.88
83559;BME280;73527;47.882;7.718;2024-02-15T01:38:28;98918.13;;;13.77;64.52
83559;BME280;73527;47.882;7.718;2024-02-15T01:40:53;98915.63;;;14.09;63.56
83559;BME280;73527;47.882;7.718;2024-02-15T01:43:19;98916.03;;;14.06;63.49
83559;BME280;73527;47.882;7.718;2024-02-15T01:45:44;98929.59;;;14.20;63.60
83559;BME280;73527;47.882;7.718;2024-02-15T01:48:12;98921.63;;;14.39;62.52
83559;BME280;73527;47.882;7.718;2024-02-15T01:50:38;98921.28;;;14.62;61.71
83559;BME280;73527;47.882;7.718;2024-02-15T01:53:05;98920.84;;;14.18;62.95
83559;BME280;73527;47.882;7.718;2024-02-15T01:55:32;98906.75;;;13.81;63.98
83559;BME280;73527;47.882;7.718;2024-02-15T01:57:59;98915.22;;;13.78;64.17
83559;BME280;73527;47.882;7.718;2024-02-15T02:00:25;98918.44;;;13.95;64.22
83559;BME280;73527;47.882;7.718;2024-02-15T02:02:53;98916.72;;;14.22;63.24
83559;BME280;73527;47.882;7.718;2024-02-15T02:05:18;98896.13;;;14.48;61.34
83559;BME280;73527;47.882;7.718;2024-02-15T02:07:43;98897.41;;;14.59;60.83
83559;BME280;73527;47.882;7.718;2024-02-15T02:10:09;98900.56;;;14.95;59.99
83559;BME280;73527;47.882;7.718;2024-02-15T02:12:39;98911.16;;;14.77;60.28
83559;BME280;73527;47.882;7.718;2024-02-15T02:15:06;98898.91;;;14.81;58.93
83559;BME280;73527;47.882;7.718;2024-02-15T02:17:32;98907.47;;;14.37;61.04
83559;BME280;73527;47.882;7.718;2024-02-15T02:19:59;98900.56;;;14.28;61.32
83559;BME280;73527;47.882;7.718;2024-02-15T02:22:24;98902.56;;;14.54;60.45
83559;BME280;73527;47.882;7.718;2024-02-15T02:25:05;98902.19;;;13.82;62.75
83559;BME280;73527;47.882;7.718;2024-02-15T02:27:35;98899.19;;;13.64;63.66
83559;BME280;73527;47.882;7.718;2024-02-15T02:30:13;98896.75;;;14.09;62.33
83559;BME280;73527;47.882;7.718;2024-02-15T02:32:44;98888.91;;;14.15;62.25
83559;BME280;73527;47.882;7.718;2024-02-15T02:35:10;98885.78;;;14.18;61.99
83559;BME280;73527;47.882;7.718;2024-02-15T02:37:41;98892.25;;;14.17;62.85
83559;BME280;73527;47.882;7.718;2024-02-15T02:40:07;98891.38;;;14.57;61.15
83559;BME280;73527;47.882;7.718;2024-02-15T02:42:51;98887.94;;;14.29;61.95
83559;BME280;73527;47.882;7.718;2024-02-15T02:45:17;98884.59;;;14.27;61.38
83559;BME280;73527;47.882;7.718;2024-02-15T02:47:45;98887.59;;;14.38;61.45
83559;BME280;73527;47.882;7.718;2024-02-15T02:50:12;98878.78;;;14.23;61.74
83559;BME280;73527;47.882;7.718;2024-02-15T02:52:38;98874.03;;;14.32;61.17
83559;BME280;73527;47.882;7.718;2024-02-15T02:55:05;98885.22;;;13.88;nan
83559;BME280;73527;47.882;7.718;2024-02-15T02:57:37;98863.00;;;13.79;63.02
83559;BME280;73527;47.882;7.718;2024-02-15T03:00:04;98867.25;;;14.01;62.10
83559;BME280;73527;47.882;7.718;2024-02-15T03:02:30;98879.34;;;13.78;62.72
83559;BME280;73527;47.882;7.718;2024-02-15T03:04:56;98879.16;;;14.20;61.71
83559;BME280;73527;47.882;7.718;2024-02-15T03:07:21;98880.41;;;14.18;61.37
83559;BME280;73527;47.882;7.718;2024-02-15T03:09:48;98869.56;;;14.52;59.13
83559;BME280;73527;47.882;7.718;2024-02-15T03:12:14;98874.16;;;14.58;58.57
83559;BME280;73527;47.882;7.718;2024-02-15T03:14:39;98879.69;;;14.37;58.97
83559;BME280;73527;47.882;7.718;2024-02-15T03:17:06;98876.97;;;14.37;59.02
83559;BME280;73527;47.882;7.718;2024-02-15T03:19:31;98883.91;;;14.12;59.59
83559;BME280;73527;47.882;7.718;2024-02-15T03:21:56;98883.16;;;13.83;60.02
83559;BME280;73527;47.882;7.718;2024-02-15T03:24:22;98877.91;;;13.41;62.37
83559;BME280;73527;47.882;7.718;2024-02-15T03:26:47;98883.19;;;13.28;62.89
83559;BME280;73527;47.882;7.718;2024-02-15T03:29:12;98880.09;;;12.88;64.63
83559;BME280;73527;47.882;7.718;2024-02-15T03:31:38;98888.53;;;12.64;65.89
83559;BME280;73527;47.882;7.718;2024-02-15T03:34:04;98886.81;;;12.78;65.06
83559;BME280;73527;47.882;7.718;2024-02-15T03:36:29;98880.09;;;12.88;65.39
83559;BME280;73527;47.882;7.718;2024-02-15T03:38:55;98898.16;;;13.16;64.62
83559;BME280;73527;47.882;7.718;2024-02-15T03:41:21;98884.69;;;13.37;63.53
83559;BME280;73527;47.882;7.718;2024-02-15T03:43:46;98883.97;;;13.22;64.23
83559;BME280;73527;47.882;7.718;2024-02-15T03:46:14;98892.78;;;13.16;65.25
83559;BME280;73527;47.882;7.718;2024-02-15T03:48:42;98896.25;;;13.31;64.27
83559;BME280;73527;47.882;7.718;2024-02-15T03:51:10;98896.25;;;13.10;65.62
83559;BME280;73527;47.882;7.718;2024-02-15T03:53:36;98894.22;;;13.39;65.04
83559;BME280;73527;47.882;7.718;2024-02-15T03:56:05;98886.34;;;13.66;63.37
83559;BME280;73527;47.882;7.718;2024-02-15T03:58:30;98891.53;;;13.67;63.59
83559;BME280;73527;47.882;7.718;2024-02-15T04:00:58;98882.59;;;13.60;63.24
83559;BME280;73527;47.882;7.718;2024-02-15T04:03:24;98889.56;;;13.05;65.30
83559;BME280;73527;47.882;7.718;2024-02-15T04:05:49;98890.69;;;13.39;64.56
83559;BME280;73527;47.882;7.718;2024-02-15T04:08:15;98883.41;;;13.33;63.83
83559;BME280;73527;47.882;7.718;2024-02-15T04:10:41;98885.53;;;13.37;64.49
83559;BME280;73527;47.882;7.718;2024-02-15T04:13:07;98885.81;;;13.49;63.69
83559;BME280;73527;47.882;7.718;2024-02-15T04:15:32;98882.13;;;13.29;63.15
83559;BME280;73527;47.882;7.718;2024-02-15T04:17:59;98887.91;;;13.26;63.77
83559;BME280;73527;47.882;7.718;2024-02-15T04:20:25;98891.94;;;13.36;63.25
83559;BME280;73527;47.882;7.718;2024-02-15T04:22:51;98893.75;;;13.29;64.55
83559;BME280;73527;47.882;7.718;2024-02-15T04:25:17;98884.28;;;13.40;63.35
83559;BME280;73527;47.882;7.718;2024-02-15T04:27:45;98872.47;;;13.34;64.15
83559;BME280;73527;47.882;7.718;2024-02-15T04:30:14;98868.88;;;13.06;64.46
83559;BME280;73527;47.882;7.718;2024-02-15T04:32:40;98862.31;;;12.66;66.00
83559;BME280;73527;47.882;7.718;2024-02-15T04:35:06;98875.69;;;12.81;66.08
83559;BME280;73527;47.882;7.718;2024-02-15T04:37:32;98833.88;;;12.78;65.46
83559;BME280;73527;47.882;7.718;2024-02-15T04:40:00;98857.09;;;13.07;64.77
83559;BME280;73527;47.882;7.718;2024-02-15T04:42:33;98856.66;;;13.25;63.24
83559;BME280;73527;47.882;7.718;2024-02-15T04:45:00;98854.94;;;13.17;64.19
83559;BME280;73527;47.882;7.718;2024-02-15T04:47:25;98856.81;;;12.53;67.32
83559;BME280;73527;47.882;7.718;2024-02-15T04:49:50;98855.50;;;12.49;65.73
83559;BME280;73527;47.882;7.718;2024-02-15T04:52:16;98852.75;;;12.85;65.26
83559;BME280;73527;47.882;7.718;2024-02-15T04:54:43;98843.22;;;12.82;65.76
83559;BME280;73527;47.882;7.718;2024-02-15T04:57:08;98846.84;;;12.53;66.56
83559;BME280;73527;47.882;7.718;2024-02-15T04:59:36;98848.94;;;12.73;65.33
83559;BME280;73527;47.882;7.718;2024-02-15T05:02:02;98847.81;;;12.67;65.56
83559;BME280;73527;47.882;7.718;2024-02-15T05:04:27;98833.59;;;12.31;66.11
83559;BME280;73527;47.882;7.718;2024-02-15T05:06:53;98821.13;;;12.66;65.10
83559;BME280;73527;47.882;7.718;2024-02-15T05:09:18;98832.72;;;12.66;64.75
83559;BME280;73527;47.882;7.718;2024-02-15T05:11:44;98829.91;;;12.74;64.73
83559;BME280;73527;47.882;7.718;2024-02-15T05:14:14;98833.94;;;12.85;64.58
83559;BME280;73527;47.882;7.718;2024-02-15T05:16:45;98821.59;;;12.97;64.08
83559;BME280;73527;47.882;7.718;2024-02-15T05:19:13;98823.69;;;12.52;65.84
83559;BME280;73527;47.882;7.718;2024-02-15T05:21:38;98820.94;;;12.67;66.19
83559;BME280;73527;47.882;7.718;2024-02-15T05:24:07;98822.00;;;13.15;63.95
83559;BME280;73527;47.882;7.718;2024-02-15T05:26:32;98809.78;;;12.91;64.46
83559;BME280;73527;47.882;7.718;2024-02-15T05:28:58;98825.66;;;12.86;65.26
83559;BME280;73527;47.882;7.718;2024-02-15T05:31:23;98818.31;;;12.74;66.21
83559;BME280;73527;47.882;7.718;2024-02-15T05:33:52;98816.72;;;12.58;65.99
83559;BME280;73527;47.882;7.718;2024-02-15T05:36:19;98814.84;;;12.59;65.80
83559;BME280;73527;47.882;7.718;2024-02-15T05:38:54;98831.31;;;12.70;65.90
83559;BME280;73527;47.882;7.718;2024-02-15T05:41:20;98825.16;;;12.55;66.41
83559;BME280;73527;47.882;7.718;2024-02-15T05:43:47;98824.25;;;12.48;66.29
83559;BME280;73527;47.882;7.718;2024-02-15T05:46:18;98827.34;;;12.09;67.33
83559;BME280;73527;47.882;7.718;2024-02-15T05:48:43;98818.19;;;12.39;66.11
83559;BME280;73527;47.882;7.718;2024-02-15T05:51:09;98822.88;;;11.80;68.57
83559;BME280;73527;47.882;7.718;2024-02-15T05:53:35;98812.69;;;11.32;70.48
83559;BME280;73527;47.882;7.718;2024-02-15T05:56:05;98822.91;;;11.14;71.39
83559;BME280;73527;47.882;7.718;2024-02-15T05:58:31;98804.03;;;11.07;71.42
83559;BME280;73527;47.882;7.718;2024-02-15T06:00:58;98813.75;;;11.23;71.01
83559;BME280;73527;47.882;7.718;2024-02-15T06:03:30;98806.09;;;11.64;69.81
83559;BME280;73527;47.882;7.718;2024-02-15T06:05:57;98806.25;;;12.06;68.35
83559;BME280;73527;47.882;7.718;2024-02-15T06:08:27;98808.47;;;11.88;69.21
83559;BME280;73527;47.882;7.718;2024-02-15T06:10:53;98807.91;;;12.07;68.08
83559;BME280;73527;47.882;7.718;2024-02-15T06:13:19;98805.06;;;12.30;67.42
83559;BME280;73527;47.882;7.718;2024-02-15T06:15:45;98803.91;;;12.39;67.08
83559;BME280;73527;47.882;7.718;2024-02-15T06:18:14;98806.78;;;12.37;67.23
83559;BME280;73527;47.882;7.718;2024-02-15T06:20:41;98803.53;;;12.42;67.28
83559;BME280;73527;47.882;7.718;2024-02-15T06:23:08;98802.19;;;12.52;66.64
83559;BME280;73527;47.882;7.718;2024-02-15T06:25:34;98801.34;;;12.31;67.67
83559;BME280;73527;47.882;7.718;2024-02-15T06:28:00;98800.75;;;12.57;66.66
83559;BME280;73527;47.882;7.718;2024-02-15T06:30:31;98789.50;;;12.68;66.12
83559;BME280;73527;47.882;7.718;2024-02-15T06:33:15;98790.00;;;12.78;65.99
83559;BME280;73527;47.882;7.718;2024-02-15T06:36:10;98782.44;;;12.88;65.47
83559;BME280;73527;47.882;7.718;2024-02-15T06:38:53;98784.69;;;12.63;66.12
83559;BME280;73527;47.882;7.718;2024-02-15T06:41:37;98790.44;;;12.81;65.97
83559;BME280;73527;47.882;7.718;2024-02-15T06:44:03;98783.59;;;12.58;66.21
83559;BME280;73527;47.882;7.718;2024-02-15T06:46:28;98785.41;;;12.50;67.34
83559;BME280;73527;47.882;7.718;2024-02-15T06:48:54;98780.75;;;12.59;66.89
83559;BME280;73527;47.882;7.718;2024-02-15T06:51:20;98781.13;;;12.56;67.06
83559;BME280;73527;47.882;7.718;2024-02-15T06:53:45;98784.94;;;12.68;66.82
83559;BME280;73527;47.882;7.718;2024-02-15T06:56:11;98771.38;;;12.55;67.16
83559;BME280;73527;47.882;7.718;2024-02-15T06:58:39;98771.38;;;12.34;67.41
83559;BME280;73527;47.882;7.718;2024-02-15T07:01:05;98756.63;;;12.23;68.00
83559;BME280;73527;47.882;7.718;2024-02-15T07:03:31;98765.31;;;12.04;68.97
83559;BME280;73527;47.882;7.718;2024-02-15T07:05:57;98762.56;;;11.97;69.42
83559;BME280;73527;47.882;7.718;2024-02-15T07:08:23;98749.19;;;11.54;71.40
83559;BME280;73527;47.882;7.718;2024-02-15T07:10:50;98761.75;;;11.82;70.12
83559;BME280;73527;47.882;7.718;2024-02-15T07:13:16;98758.34;;;12.10;69.30
83559;BME280;73527;47.882;7.718;2024-02-15T07:15:42;98762.00;;;12.23;68.76
83559;BME280;73527;47.882;7.718;2024-02-15T07:18:09;98757.50;;;12.51;68.36
83559;BME280;73527;47.882;7.718;2024-02-15T07:20:35;98753.78;;;12.31;68.15
83559;BME280;73527;47.882;7.718;2024-02-15T07:23:01;98761.03;;;12.52;68.08
83559;BME280;73527;47.882;7.718;2024-02-15T07:25:26;98748.19;;;12.75;66.63
83559;BME280;73527;47.882;7.718;2024-02-15T07:27:52;98754.06;;;12.85;66.65
83559;BME280;73527;47.882;7.718;2024-02-15T07:30:22;98755.75;;;12.44;67.88
83559;BME280;73527;47.882;7.718;2024-02-15T07:32:48;98765.88;;;12.42;68.39
83559;BME280;73527;47.882;7.718;2024-02-15T07:35:14;98770.75;;;12.53;67.68
83559;BME280;73527;47.882;7.718;2024-02-15T07:37:51;98761.75;;;12.39;68.26
83559;BME280;73527;47.882;7.718;2024-02-15T07:40:18;98753.34;;;12.49;67.20
83559;BME280;73527;47.882;7.718;2024-02-15T07:42:43;98761.19;;;12.50;67.03
83559;BME280;73527;47.882;7.718;2024-02-15T07:45:09;98768.59;;;12.91;66.21
83559;BME280;73527;47.882;7.718;2024-02-15T07:47:36;98759.56;;;12.77;65.99
83559;BME280;73527;47.882;7.718;2024-02-15T07:50:03;98758.16;;;12.81;65.52
83559;BME280;73527;47.882;7.718;2024-02-15T07:52:30;98766.44;;;13.07;64.79
83559;BME280;73527;47.882;7.718;2024-02-15T07:54:56;98765.03;;;13.12;64.54
83559;BME280;73527;47.882;7.718;2024-02-15T07:57:21;98776.50;;;12.99;65.52
83559;BME280;73527;47.882;7.718;2024-02-15T07:59:48;98776.06;;;12.68;66.92
83559;BME280;73527;47.882;7.718;2024-02-15T08:02:14;98795.66;;;12.62;67.00
83559;BME280;73527;47.882;7.718;2024-02-15T08:04:43;98786.19;;;12.93;65.80
83559;BME280;73527;47.882;7.718;2024-02-15T08:07:09;98781.25;;;12.97;65.61
83559;BME280;73527;47.882;7.718;2024-02-15T08:09:37;98787.75;;;12.60;65.73
83559;BME280;73527;47.882;7.718;2024-02-15T08:12:03;98797.94;;;12.65;65.80
83559;BME280;73527;47.882;7.718;2024-02-15T08:14:28;98782.47;;;12.94;65.09
83559;BME280;73527;47.882;7.718;2024-02-15T08:16:54;98783.38;;;13.01;64.57
83559;BME280;73527;47.882;7.718;2024-02-15T08:19:21;98785.06;;;12.81;65.79
83559;BME280;73527;47.882;7.718;2024-02-15T08:21:48;98782.56;;;12.80;65.51
83559;BME280;73527;47.882;7.718;2024-02-15T08:24:16;98773.38;;;12.95;64.88
83559;BME280;73527;47.882;7.718;2024-02-15T08:26:42;98769.66;;;12.96;65.09
83559;BME280;73527;47.882;7.718;2024-02-15T08:29:07;98765.28;;;13.17;64.01
83559;BME280;73527;47.882;7.718;2024-02-15T08:31:33;98768.88;;;13.30;63.57
83559;BME280;73527;47.882;7.718;2024-02-15T08:34:04;98762.13;;;12.85;65.33
83559;BME280;73527;47.882;7.718;2024-02-15T08:36:31;98738.72;;;12.79;64.80
83559;BME280;73527;47.882;7.718;2024-02-15T08:38:56;98751.41;;;13.20;63.84
83559;BME280;73527;47.882;7.718;2024-02-15T08:41:21;98749.78;;;13.25;63.36
83559;BME280;73527;47.882;7.718;2024-02-15T08:43:52;98746.03;;;13.20;63.39
83559;BME280;73527;47.882;7.718;2024-02-15T08:46:17;98736.53;;;13.24;63.11
83559;BME280;73527;47.882;7.718;2024-02-15T08:48:43;98719.66;;;13.43;62.45
83559;BME280;73527;47.882;7.718;2024-02-15T08:51:09;98727.41;;;13.18;63.29
83559;BME280;73527;47.882;7.718;2024-02-15T08:53:35;98723.03;;;13.17;63.88
83559;BME280;73527;47.882;7.718;2024-02-15T08:56:02;98709.97;;;13.55;62.42
83559;BME280;73527;47.882;7.718;2024-02-15T08:58:28;98719.38;;;13.79;62.39
83559;BME280;73527;47.882;7.718;2024-02-15T09:00:55;98718.75;;;13.70;61.60
83559;BME280;73527;47.882;7.718;2024-02-15T09:03:21;98703.81;;;13.61;62.10
83559;BME280;73527;47.882;7.718;2024-02-15T09:05:47;98706.38;;;13.35;62.96
83559;BME280;73527;47.882;7.718;2024-02-15T09:08:13;98699.59;;;13.52;62.80
83559;BME280;73527;47.882;7.718;2024-02-15T09:10:39;98701.84;;;14.02;62.22
83559;BME280;73527;47.882;7.718;2024-02-15T09:13:04;98692.53;;;14.25;61.09
83559;BME280;73527;47.882;7.718;2024-02-15T09:15:31;98686.34;;;14.37;61.14
83559;BME280;73527;47.882;7.718;2024-02-15T09:17:56;98693.41;;;14.58;59.95
83559;BME280;73527;47.882;7.718;2024-02-15T09:20:23;98694.66;;;14.75;59.93
83559;BME280;73527;47.882;7.718;2024-02-15T09:22:53;98683.41;;;14.91;59.14
83559;BME280;73527;47.882;7.718;2024-02-15T09:25:20;98679.25;;;14.82;59.45
83559;BME280;73527;47.882;7.718;2024-02-15T09:27:46;98684.66;;;14.82;59.51
83559;BME280;73527;47.882;7.718;2024-02-15T09:30:11;98680.41;;;15.26;57.89
83559;BME280;73527;47.882;7.718;2024-02-15T09:32:37;98667.72;;;15.33;57.61
83559;BME280;73527;47.882;7.718;2024-02-15T09:35:03;98678.28;;;15.41;56.96
83559;BME280;73527;47.882;7.718;2024-02-15T09:37:28;98681.91;;;15.02;58.48
83559;BME280;73527;47.882;7.718;2024-02-15T09:39:55;98675.63;;;15.34;58.18
83559;BME280;73527;47.882;7.718;2024-02-15T09:42:20;98666.59;;;15.60;56.30
83559;BME280;73527;47.882;7.718;2024-02-15T09:44:46;98669.59;;;15.26;56.87
83559;BME280;73527;47.882;7.718;2024-02-15T09:47:12;98675.56;;;14.64;60.32
83559;BME280;73527;47.882;7.718;2024-02-15T09:49:38;98665.69;;;15.08;58.94
83559;BME280;73527;47.882;7.718;2024-02-15T09:52:08;98668.81;;;15.05;59.95
83559;BME280;73527;47.882;7.718;2024-02-15T09:54:40;98671.38;;;15.58;57.60
83559;BME280;73527;47.882;7.718;2024-02-15T09:57:09;98675.13;;;14.60;61.07
83559;BME280;73527;47.882;7.718;2024-02-15T09:59:35;98672.00;;;14.83;59.65
83559;BME280;73527;47.882;7.718;2024-02-15T10:02:01;98661.06;;;15.86;57.14
83559;BME280;73527;47.882;7.718;2024-02-15T10:04:26;98666.38;;;15.99;57.33
83559;BME280;73527;47.882;7.718;2024-02-15T10:06:52;98652.75;;;16.12;55.23
83559;BME280;73527;47.882;7.718;2024-02-15T10:09:28;98651.16;;;16.79;53.57
83559;BME280;73527;47.882;7.718;2024-02-15T10:11:58;98654.38;;;16.94;54.35
83559;BME280;73527;47.882;7.718;2024-02-15T10:14:25;98640.66;;;17.44;52.29
83559;BME280;73527;47.882;7.718;2024-02-15T10:16:51;98645.16;;;17.50;52.66
83559;BME280;73527;47.882;7.718;2024-02-15T10:19:18;98642.75;;;17.42;51.44
83559;BME280;73527;47.882;7.718;2024-02-15T10:21:46;98638.53;;;17.46;51.47
83559;BME280;73527;47.882;7.718;2024-02-15T10:24:11;98632.56;;;17.74;51.99
83559;BME280;73527;47.882;7.718;2024-02-15T10:26:37;98623.31;;;17.45;52.58
83559;BME280;73527;47.882;7.718;2024-02-15T10:29:09;98627.00;;;18.10;51.59
83559;BME280;73527;47.882;7.718;2024-02-15T10:31:37;98617.16;;;17.86;52.10
83559;BME280;73527;47.882;7.718;2024-02-15T10:34:05;98625.41;;;18.44;50.83
83559;BME280;73527;47.882;7.718;2024-02-15T10:36:31;98617.66;;;18.82;49.48
83559;BME280;73527;47.882;7.718;2024-02-15T10:39:13;98612.00;;;18.84;49.10
83559;BME280;73527;47.882;7.718;2024-02-15T10:41:50;98610.31;;;19.06;49.29
83559;BME280;73527;47.882;7.718;2024-02-15T10:44:21;98605.66;;;19.30;48.85
83559;BME280;73527;47.882;7.718;2024-02-15T10:46:49;98610.13;;;19.36;48.87
83559;BME280;73527;47.882;7.718;2024-02-15T10:49:23;98598.72;;;19.62;48.34
83559;BME280;73527;47.882;7.718;2024-02-15T10:51:55;98600.72;;;19.66;46.59
83559;BME280;73527;47.882;7.718;2024-02-15T10:54:46;98612.56;;;19.89;46.67
83559;BME280;73527;47.882;7.718;2024-02-15T10:57:14;98607.47;;;20.09;46.21
83559;BME280;73527;47.882;7.718;2024-02-15T10:59:54;98597.72;;;20.13;45.57
83559;BME280;73527;47.882;7.718;2024-02-15T11:04:53;98584.69;;;19.98;46.64
83559;BME280;73527;47.882;7.718;2024-02-15T11:07:25;98581.97;;;19.98;46.88
83559;BME280;73527;47.882;7.718;2024-02-15T11:09:54;98585.09;;;20.23;46.73
83559;BME280;73527;47.882;7.718;2024-02-15T11:12:22;98592.50;;;19.78;46.91
83559;BME280;73527;47.882;7.718;2024-02-15T11:14:48;98571.66;;;20.67;45.10
83559;BME280;73527;47.882;7.718;2024-02-15T11:20:10;98583.09;;;20.86;44.69
83559;BME280;73527;47.882;7.718;2024-02-15T11:22:37;98580.09;;;21.04;44.22
83559;BME280;73527;47.882;7.718;2024-02-15T11:25:03;98566.94;;;21.01;44.65
83559;BME280;73527;47.882;7.718;2024-02-15T11:27:40;98549.19;;;20.76;44.76
83559;BME280;73527;47.882;7.718;2024-02-15T11:30:06;98548.72;;;20.13;46.21
83559;BME280;73527;47.882;7.718;2024-02-15T11:35:25;98544.78;;;20.54;46.25
83559;BME280;73527;47.882;7.718;2024-02-15T11:37:57;98543.63;;;20.33;45.83
83559;BME280;73527;47.882;7.718;2024-02-15T11:43:07;98544.63;;;20.27;45.84
83559;BME280;73527;47.882;7.718;2024-02-15T11:45:35;98538.34;;;20.26;46.20
83559;BME280;73527;47.882;7.718;2024-02-15T11:48:14;98525.63;;;20.32;45.78
83559;BME280;73527;47.882;7.718;2024-02-15T11:50:40;98526.97;;;20.30;45.91
83559;BME280;73527;47.882;7.718;2024-02-15T11:53:07;98522.66;;;20.72;45.81
83559;BME280;73527;47.882;7.718;2024-02-15T11:55:36;98512.75;;;20.44;46.25
83559;BME280;73527;47.882;7.718;2024-02-15T11:58:03;98510.25;;;20.81;44.94
83559;BME280;73527;47.882;7.718;2024-02-15T12:00:36;98507.31;;;21.26;43.72
83559;BME280;73527;47.882;7.718;2024-02-15T12:03:21;98505.94;;;20.42;45.70
83559;BME280;73527;47.882;7.718;2024-02-15T12:06:05;98505.66;;;19.60;47.85
83559;BME280;73527;47.882;7.718;2024-02-15T12:08:51;98502.97;;;20.26;46.73
83559;BME280;73527;47.882;7.718;2024-02-15T12:11:35;98500.81;;;20.12;48.24
83559;BME280;73527;47.882;7.718;2024-02-15T12:14:19;98511.78;;;20.72;46.38
83559;BME280;73527;47.882;7.718;2024-02-15T12:17:10;98509.63;;;21.17;44.86
83559;BME280;73527;47.882;7.718;2024-02-15T12:19:55;98515.97;;;20.58;47.07
83559;BME280;73527;47.882;7.718;2024-02-15T12:25:03;98507.03;;;21.27;44.98
83559;BME280;73527;47.882;7.718;2024-02-15T12:27:37;98502.06;;;21.46;45.13
83559;BME280;73527;47.882;7.718;2024-02-15T12:30:03;98487.41;;;21.57;44.45
83559;BME280;73527;47.882;7.718;2024-02-15T12:32:31;98491.41;;;21.45;44.12
83559;BME280;73527;47.882;7.718;2024-02-15T12:35:13;98483.31;;;20.24;46.09
83559;BME280;73527;47.882;7.718;2024-02-15T12:37:43;98472.78;;;20.71;45.81
83559;BME280;73527;47.882;7.718;2024-02-15T12:40:18;98473.19;;;20.80;45.77
83559;BME280;73527;47.882;7.718;2024-02-15T12:42:44;98463.75;;;20.66;46.02
83559;BME280;73527;47.882;7.718;2024-02-15T12:45:25;98462.34;;;20.25;47.14
83559;BME280;73527;47.882;7.718;2024-02-15T12:47:53;98459.69;;;20.90;45.48
83559;BME280;73527;47.882;7.718;2024-02-15T12:50:20;98460.59;;;21.01;45.52
83559;BME280;73527;47.882;7.718;2024-02-15T12:52:47;98450.44;;;21.13;44.85
83559;BME280;73527;47.882;7.718;2024-02-15T12:55:20;98449.19;;;21.25;44.76
83559;BME280;73527;47.882;7.718;2024-02-15T12:57:50;98450.34;;;21.29;44.88
83559;BME280;73527;47.882;7.718;2024-02-15T13:00:26;98436.19;;;21.33;44.90
83559;BME280;73527;47.882;7.718;2024-02-15T13:02:57;98439.38;;;21.24;44.35
83559;BME280;73527;47.882;7.718;2024-02-15T13:05:25;98435.50;;;21.20;45.28
83559;BME280;73527;47.882;7.718;2024-02-15T13:07:52;98429.75;;;21.17;44.61
83559;BME280;73527;47.882;7.718;2024-02-15T13:10:20;98418.28;;;21.15;44.12
83559;BME280;73527;47.882;7.718;2024-02-15T13:12:46;98412.16;;;21.08;44.49
83559;BME280;73527;47.882;7.718;2024-02-15T13:15:13;98409.88;;;21.21;44.33
83559;BME280;73527;47.882;7.718;2024-02-15T13:17:47;98408.94;;;21.11;44.69